Time;durP1;ratioP1;P1;durP2;ratioP2;P2;SDS_P1;SDS_P2;PMS_P1;PMS_P2;Temp;Humidity;BMP_temperature;BMP_pressure;BME280_temperature;BME280_humidity;BME280_pressure;Samples;Min_cycle;Max_cycle;Signal;HPM_P1;HPM_P2
2022/05/05 00:00:51;;;;;;;1.52;1.23;;;18.30;55.30;;;;;;5072144;28;20557;-71
2022/05/05 00:03:17;;;;;;;1.63;1.10;;;18.30;55.20;;;;;;5072365;28;20105;-72
2022/05/05 00:05:42;;;;;;;2.13;1.48;;;18.30;55.10;;;;;;5072281;28;20032;-71
2022/05/05 00:08:09;;;;;;;1.40;1.10;;;18.40;55.30;;;;;;5079135;28;20032;-72
2022/05/05 00:16:06;;;;;;;1.15;1.05;;;18.30;54.90;;;;;;5073511;28;20450;-71
2022/05/05 00:18:32;;;;;;;2.13;1.02;;;18.30;54.80;;;;;;5073651;28;20451;-71
2022/05/05 00:20:57;;;;;;;2.47;1.40;;;18.30;54.80;;;;;;5075375;28;20028;-71
2022/05/05 00:23:23;;;;;;;1.33;1.10;;;18.30;54.70;;;;;;5084468;28;20110;-71
2022/05/05 00:25:49;;;;;;;2.20;1.30;;;18.30;55.00;;;;;;5075408;28;20025;-71
2022/05/05 00:28:14;;;;;;;2.25;1.40;;;18.30;55.10;;;;;;5077790;28;20481;-71
2022/05/05 00:30:40;;;;;;;2.67;1.45;;;18.30;55.40;;;;;;5079112;28;20028;-71
2022/05/05 00:33:06;;;;;;;1.58;1.30;;;18.20;55.50;;;;;;5094599;28;20027;-71
2022/05/05 00:35:32;;;;;;;1.45;1.35;;;18.20;55.70;;;;;;5078672;28;20035;-72
2022/05/05 00:37:58;;;;;;;1.52;1.25;;;18.10;55.50;;;;;;5087768;28;20111;-71
2022/05/05 00:40:24;;;;;;;1.45;1.25;;;18.10;55.20;;;;;;5095605;28;20020;-71
2022/05/05 00:42:49;;;;;;;1.90;1.27;;;18.10;55.40;;;;;;5086017;28;20465;-71
2022/05/05 00:45:16;;;;;;;3.20;1.15;;;18.10;55.40;;;;;;5080232;28;20040;-71
2022/05/05 00:47:41;;;;;;;2.80;1.40;;;18.00;55.40;;;;;;5085937;28;20054;-71
2022/05/05 00:50:08;;;;;;;2.50;1.42;;;17.90;55.30;;;;;;5095445;28;20068;-71
2022/05/05 00:52:34;;;;;;;2.95;1.50;;;17.90;55.40;;;;;;5092310;28;20059;-72
2022/05/05 00:55:00;;;;;;;1.95;1.02;;;17.80;56.40;;;;;;5094087;28;20021;-71
2022/05/05 00:57:27;;;;;;;3.85;1.25;;;17.80;55.50;;;;;;5080343;28;20024;-71
2022/05/05 00:59:54;;;;;;;2.13;1.30;;;17.70;56.00;;;;;;5077981;28;20039;-71
2022/05/05 01:02:20;;;;;;;2.15;1.88;;;17.60;56.20;;;;;;5074654;28;20100;-71
2022/05/05 01:04:46;;;;;;;6.30;2.28;;;17.50;56.50;;;;;;5082143;28;20024;-71
2022/05/05 01:07:14;;;;;;;2.55;1.70;;;17.40;56.60;;;;;;5092683;28;20032;-72
2022/05/05 01:09:40;;;;;;;1.45;1.35;;;17.40;56.50;;;;;;5081983;28;20033;-71
2022/05/05 01:12:07;;;;;;;4.38;2.03;;;17.30;56.50;;;;;;5074207;28;20031;-71
2022/05/05 01:14:34;;;;;;;2.78;2.00;;;17.20;57.10;;;;;;5080586;28;20016;-71
2022/05/05 01:17:00;;;;;;;5.32;1.90;;;17.10;57.00;;;;;;5078412;28;20128;-71
2022/05/05 01:19:26;;;;;;;3.88;1.75;;;17.10;58.10;;;;;;5094507;28;20489;-71
2022/05/05 01:21:55;;;;;;;2.00;1.67;;;17.00;57.40;;;;;;5088744;28;20393;-71
2022/05/05 01:29:51;;;;;;;;;;;16.80;57.80;;;;;;5093730;28;20516;-71
2022/05/05 01:32:17;;;;;;;2.00;1.60;;;16.80;57.20;;;;;;5088324;28;19919;-71
2022/05/05 01:34:42;;;;;;;2.30;1.85;;;16.70;57.90;;;;;;5085414;28;20016;-71
2022/05/05 01:37:08;;;;;;;1.80;1.67;;;16.70;57.90;;;;;;5079313;28;20366;-72
2022/05/05 01:39:34;;;;;;;2.42;1.73;;;16.60;57.90;;;;;;5094298;28;20042;-70
2022/05/05 01:42:00;;;;;;;1.73;1.52;;;16.60;58.00;;;;;;5094085;28;20035;-72
2022/05/05 01:44:25;;;;;;;2.67;1.95;;;16.50;58.10;;;;;;5076611;28;20032;-72
2022/05/05 01:46:53;;;;;;;2.17;1.70;;;16.50;58.10;;;;;;5089723;28;20134;-71
2022/05/05 01:49:18;;;;;;;2.00;1.50;;;16.40;58.20;;;;;;5094005;28;20035;-71
2022/05/05 01:51:44;;;;;;;2.08;1.88;;;16.40;58.30;;;;;;5077472;28;20086;-71
2022/05/05 01:54:10;;;;;;;2.90;2.05;;;16.30;58.50;;;;;;5073754;28;20029;-71
2022/05/05 01:56:36;;;;;;;3.10;2.42;;;16.30;59.10;;;;;;5073948;28;20040;-71
2022/05/05 01:59:02;;;;;;;5.70;2.28;;;16.20;59.70;;;;;;5074822;28;20024;-71
2022/05/05 02:01:28;;;;;;;3.60;2.83;;;16.20;60.00;;;;;;5073529;28;20045;-70
2022/05/05 02:03:53;;;;;;;3.92;2.90;;;16.20;60.70;;;;;;5072239;28;20032;-71
2022/05/05 02:06:19;;;;;;;5.05;2.92;;;16.10;61.20;;;;;;5073755;28;20103;-71
2022/05/05 02:08:45;;;;;;;4.40;2.97;;;16.10;61.30;;;;;;5071623;28;20446;-71
2022/05/05 02:11:11;;;;;;;4.05;2.97;;;16.10;61.70;;;;;;5085129;28;20077;-71
2022/05/05 02:13:37;;;;;;;4.22;3.03;;;16.10;61.90;;;;;;5093588;28;20020;-71
2022/05/05 02:16:03;;;;;;;3.75;3.10;;;16.10;61.90;;;;;;5083560;28;20024;-70
2022/05/05 02:18:30;;;;;;;4.15;2.55;;;16.00;62.20;;;;;;5080812;28;20021;-71
2022/05/05 02:20:55;;;;;;;3.88;2.88;;;16.00;62.10;;;;;;5073197;28;20025;-71
2022/05/05 02:23:22;;;;;;;4.03;2.50;;;16.00;62.20;;;;;;5084280;28;20489;-71
2022/05/05 02:25:48;;;;;;;5.45;2.67;;;16.00;62.20;;;;;;5083330;28;20058;-72
2022/05/05 02:28:14;;;;;;;4.63;2.70;;;16.00;62.20;;;;;;5093324;28;20024;-71
2022/05/05 02:30:40;;;;;;;3.20;2.38;;;16.00;61.90;;;;;;5092410;28;20043;-71
2022/05/05 02:33:06;;;;;;;3.58;2.97;;;15.90;61.50;;;;;;5092014;28;20031;-70
2022/05/05 02:35:32;;;;;;;5.88;3.28;;;15.90;61.90;;;;;;5091938;28;20031;-71
2022/05/05 02:40:42;;;;;;;6.68;3.58;;;15.80;62.50;;;;;;5087137;28;20117;-72
2022/05/05 02:43:08;;;;;;;6.15;3.92;;;15.80;62.70;;;;;;5092393;28;20028;-71
2022/05/05 02:45:34;;;;;;;6.65;3.88;;;15.70;62.90;;;;;;5090729;28;20025;-71
2022/05/05 02:48:01;;;;;;;5.70;3.67;;;15.70;63.20;;;;;;5092958;28;20433;-71
2022/05/05 02:50:27;;;;;;;6.47;3.72;;;15.70;63.50;;;;;;5088823;28;20021;-71
2022/05/05 02:52:54;;;;;;;6.20;4.03;;;15.70;63.80;;;;;;5092809;28;20020;-71
2022/05/05 02:55:20;;;;;;;5.00;3.75;;;15.70;63.50;;;;;;5074804;28;20020;-71
2022/05/05 02:57:46;;;;;;;7.13;3.72;;;15.60;63.10;;;;;;5083973;28;20028;-70
2022/05/05 03:00:12;;;;;;;4.57;3.45;;;15.60;63.00;;;;;;5085595;28;20095;-71
2022/05/05 03:02:42;;;;;;;4.60;3.15;;;15.60;62.70;;;;;;5072485;28;20024;-71
2022/05/05 03:05:13;;;;;;;4.45;3.78;;;15.50;62.50;;;;;;5071549;28;20051;-71
2022/05/05 03:07:41;;;;;;;5.22;3.45;;;15.50;62.40;;;;;;5072785;28;20024;-71
2022/05/05 03:10:07;;;;;;;4.63;3.33;;;15.40;62.30;;;;;;5084352;28;20020;-71
2022/05/05 03:12:33;;;;;;;4.40;3.17;;;15.40;62.30;;;;;;5092664;28;20032;-71
2022/05/05 03:14:59;;;;;;;3.67;3.22;;;15.40;62.30;;;;;;5089685;28;20020;-71
2022/05/05 03:17:25;;;;;;;3.67;3.38;;;15.30;62.40;;;;;;5071024;28;20028;-71
2022/05/05 03:19:54;;;;;;;4.22;3.45;;;15.30;62.30;;;;;;5074114;28;20036;-70
2022/05/05 03:22:19;;;;;;;4.80;3.80;;;15.30;62.50;;;;;;5090599;28;20031;-71
2022/05/05 03:24:45;;;;;;;4.65;3.83;;;15.20;63.00;;;;;;5073872;28;20607;-71
2022/05/05 03:27:11;;;;;;;5.03;4.10;;;15.20;63.10;;;;;;5070980;28;20036;-71
2022/05/05 03:29:37;;;;;;;5.25;4.10;;;15.20;62.90;;;;;;5072062;28;20078;-71
2022/05/05 03:32:03;;;;;;;4.70;3.20;;;15.10;62.80;;;;;;5089778;28;20363;-71
2022/05/05 03:34:28;;;;;;;4.88;3.95;;;15.10;62.60;;;;;;5085313;28;20029;-71
2022/05/05 03:36:54;;;;;;;4.07;3.53;;;15.10;62.70;;;;;;5072113;28;20025;-71
2022/05/05 03:39:20;;;;;;;4.20;3.40;;;15.00;62.80;;;;;;5071685;28;20025;-71
2022/05/05 03:41:45;;;;;;;6.22;3.70;;;15.00;62.80;;;;;;5086356;28;20355;-70
2022/05/05 03:44:11;;;;;;;4.22;3.22;;;15.00;62.90;;;;;;5092462;28;20541;-71
2022/05/05 03:46:37;;;;;;;4.90;4.00;;;15.00;62.90;;;;;;5084348;28;20111;-71
2022/05/05 03:49:03;;;;;;;6.50;4.18;;;14.90;62.80;;;;;;5092229;28;20684;-72
2022/05/05 03:51:29;;;;;;;4.75;3.70;;;14.90;63.20;;;;;;5075719;28;20029;-72
2022/05/05 03:53:54;;;;;;;4.53;3.88;;;14.90;63.30;;;;;;5090110;28;20023;-72
2022/05/05 03:56:20;;;;;;;5.40;4.05;;;14.90;63.30;;;;;;5094799;28;20016;-72
2022/05/05 03:58:46;;;;;;;4.35;3.83;;;14.90;63.40;;;;;;5080723;28;20025;-72
2022/05/05 04:01:12;;;;;;;7.07;4.05;;;14.90;63.50;;;;;;5094352;28;20405;-72
2022/05/05 04:03:43;;;;;;;4.50;3.50;;;14.90;63.50;;;;;;5096298;28;20407;-71
2022/05/05 04:06:09;;;;;;;5.40;3.80;;;14.90;63.50;;;;;;5096172;28;20103;-72
2022/05/05 04:08:37;;;;;;;4.32;3.78;;;14.90;63.60;;;;;;5096177;28;20032;-72
2022/05/05 04:11:05;;;;;;;3.78;3.38;;;14.90;63.70;;;;;;5093684;28;20067;-72
2022/05/05 04:13:31;;;;;;;7.18;3.67;;;14.90;63.70;;;;;;5094072;28;20068;-72
2022/05/05 04:15:56;;;;;;;4.40;3.35;;;14.90;63.80;;;;;;5085699;28;20096;-71
2022/05/05 04:18:22;;;;;;;4.85;3.90;;;14.90;63.90;;;;;;5087242;28;20071;-72
2022/05/05 04:20:48;;;;;;;4.03;3.38;;;14.90;64.00;;;;;;5077301;28;20040;-72
2022/05/05 04:23:14;;;;;;;4.45;3.35;;;15.00;64.30;;;;;;5075456;28;20044;-71
2022/05/05 04:25:41;;;;;;;7.68;3.85;;;15.00;64.50;;;;;;5075729;28;20055;-72
2022/05/05 04:28:08;;;;;;;5.13;3.70;;;15.10;64.60;;;;;;5089936;28;20094;-72
2022/05/05 04:30:35;;;;;;;7.35;3.53;;;15.10;64.80;;;;;;5095574;28;20024;-72
2022/05/05 04:33:00;;;;;;;3.92;3.08;;;15.20;65.00;;;;;;5094349;28;20036;-72
2022/05/05 04:35:26;;;;;;;3.97;3.58;;;15.20;64.70;;;;;;5093908;28;20093;-72
2022/05/05 04:37:52;;;;;;;4.60;3.75;;;15.30;64.80;;;;;;5093716;28;20099;-71
2022/05/05 04:40:18;;;;;;;4.63;3.90;;;15.30;64.60;;;;;;5094947;28;20016;-72
2022/05/05 04:42:44;;;;;;;3.53;2.90;;;15.40;64.40;;;;;;5095455;28;20036;-72
2022/05/05 04:45:11;;;;;;;4.50;3.47;;;15.50;64.40;;;;;;5092121;28;20088;-72
2022/05/05 04:47:37;;;;;;;6.45;3.08;;;15.50;64.20;;;;;;5075196;28;20542;-72
2022/05/05 04:50:03;;;;;;;4.95;3.70;;;15.60;64.30;;;;;;5076560;28;20082;-72
2022/05/05 04:52:31;;;;;;;4.65;3.90;;;15.70;64.30;;;;;;5074902;28;20032;-72
2022/05/05 04:54:56;;;;;;;4.38;3.88;;;15.70;64.20;;;;;;5075064;28;20017;-72
2022/05/05 04:57:22;;;;;;;5.03;3.92;;;15.70;64.20;;;;;;5074813;28;20073;-72
2022/05/05 04:59:48;;;;;;;4.82;3.70;;;15.80;64.30;;;;;;5073559;28;20040;-72
2022/05/05 05:02:14;;;;;;;5.40;3.63;;;15.90;64.20;;;;;;5084259;28;20038;-72
2022/05/05 05:04:40;;;;;;;5.03;3.63;;;15.90;64.00;;;;;;5093252;28;20427;-72
2022/05/05 05:07:07;;;;;;;4.25;3.58;;;16.00;64.30;;;;;;5075251;28;20127;-73
2022/05/05 05:09:34;;;;;;;10.60;4.13;;;16.10;64.50;;;;;;5094996;28;20107;-71
2022/05/05 05:12:01;;;;;;;7.15;5.53;;;16.20;64.90;;;;;;5093769;28;20036;-72
2022/05/05 05:14:26;;;;;;;11.35;7.18;;;16.30;65.00;;;;;;5095017;28;20048;-72
2022/05/05 05:16:52;;;;;;;19.00;11.85;;;16.50;64.90;;;;;;5089843;28;20052;-72
2022/05/05 05:19:19;;;;;;;24.33;16.20;;;16.60;64.60;;;;;;5073139;28;20024;-71
2022/05/05 05:21:45;;;;;;;29.83;17.08;;;16.80;64.20;;;;;;5088159;28;20039;-73
2022/05/05 05:24:11;;;;;;;25.02;15.20;;;16.90;63.80;;;;;;5094757;28;20028;-72
2022/05/05 05:26:37;;;;;;;24.95;15.20;;;17.00;63.60;;;;;;5093516;28;20035;-72
2022/05/05 05:29:02;;;;;;;35.92;19.40;;;17.10;63.30;;;;;;5093369;28;20389;-72
2022/05/05 05:31:28;;;;;;;46.63;24.40;;;17.10;62.90;;;;;;5077629;28;20032;-73
2022/05/05 05:33:54;;;;;;;51.72;26.70;;;17.20;62.50;;;;;;5073028;28;20100;-72
2022/05/05 05:36:20;;;;;;;41.08;20.92;;;17.40;62.40;;;;;;5074487;28;20029;-72
2022/05/05 05:38:46;;;;;;;33.22;19.88;;;17.40;62.20;;;;;;5073976;28;20013;-72
2022/05/05 05:41:12;;;;;;;31.55;18.83;;;17.60;62.10;;;;;;5072625;28;20359;-72
2022/05/05 05:43:37;;;;;;;37.95;21.55;;;17.70;61.70;;;;;;5084893;28;20039;-72
2022/05/05 05:46:03;;;;;;;35.05;20.60;;;17.80;61.30;;;;;;5088372;28;20051;-71
2022/05/05 05:48:29;;;;;;;31.85;19.25;;;17.90;61.10;;;;;;5073335;28;20107;-72
2022/05/05 05:50:55;;;;;;;34.90;20.27;;;18.00;60.70;;;;;;5087431;28;20024;-72
2022/05/05 05:53:21;;;;;;;33.75;19.85;;;18.00;60.60;;;;;;5094010;28;20123;-71
2022/05/05 05:55:47;;;;;;;31.88;19.45;;;18.10;60.50;;;;;;5092684;28;20481;-72
2022/05/05 05:58:13;;;;;;;27.73;16.35;;;18.20;60.40;;;;;;5089015;28;20081;-72
2022/05/05 06:00:39;;;;;;;27.45;17.10;;;18.30;60.20;;;;;;5093665;28;20066;-72
2022/05/05 06:05:49;;;;;;;23.20;14.50;;;18.50;59.80;;;;;;5087181;28;20039;-72
2022/05/05 06:08:15;;;;;;;22.73;14.13;;;18.60;59.70;;;;;;5072165;28;20024;-72
2022/05/05 06:10:41;;;;;;;21.20;13.55;;;18.80;59.50;;;;;;5072161;28;20393;-72
2022/05/05 06:13:08;;;;;;;19.70;13.00;;;18.90;59.50;;;;;;5073422;28;20389;-72
2022/05/05 06:15:34;;;;;;;21.33;12.30;;;19.00;59.00;;;;;;5072884;28;20021;-71
2022/05/05 06:17:59;;;;;;;24.48;14.43;;;19.10;58.30;;;;;;5090253;28;20438;-72
2022/05/05 06:20:25;;;;;;;22.42;14.77;;;19.10;58.00;;;;;;5076979;28;20397;-72
2022/05/05 06:22:51;;;;;;;26.73;15.93;;;19.10;57.70;;;;;;5093474;28;20032;-71
2022/05/05 06:25:20;;;;;;;36.45;18.60;;;19.10;57.40;;;;;;5088391;28;20115;-72
2022/05/05 06:27:47;;;;;;;36.17;22.10;;;19.10;57.20;;;;;;5073170;28;20028;-72
2022/05/05 06:30:13;;;;;;;35.83;20.63;;;19.00;56.90;;;;;;5074995;28;20070;-72
2022/05/05 06:32:40;;;;;;;31.73;18.10;;;18.90;57.00;;;;;;5072977;28;20025;-73
2022/05/05 06:35:06;;;;;;;33.78;19.15;;;18.90;57.10;;;;;;5073227;28;20055;-72
2022/05/05 06:37:32;;;;;;;24.50;15.27;;;18.90;57.30;;;;;;5081155;28;20052;-71
2022/05/05 06:39:58;;;;;;;22.40;14.52;;;18.90;57.30;;;;;;5082726;28;20063;-72
2022/05/05 06:42:24;;;;;;;21.58;14.55;;;18.90;57.50;;;;;;5091149;28;20032;-71
2022/05/05 06:44:49;;;;;;;26.58;15.02;;;18.90;57.40;;;;;;5093283;28;20092;-71
2022/05/05 06:47:15;;;;;;;20.17;14.02;;;18.90;57.30;;;;;;5092068;28;20031;-71
2022/05/05 06:49:41;;;;;;;16.38;12.63;;;18.90;57.50;;;;;;5079271;28;20548;-70
2022/05/05 06:52:07;;;;;;;20.08;11.93;;;19.00;57.50;;;;;;5090213;28;20059;-71
2022/05/05 06:54:33;;;;;;;15.00;11.10;;;19.00;57.50;;;;;;5085711;28;20017;-71
2022/05/05 06:56:59;;;;;;;15.80;10.82;;;19.00;57.30;;;;;;5082680;28;20016;-71
2022/05/05 06:59:25;;;;;;;14.75;9.48;;;19.10;57.50;;;;;;5092747;28;20038;-71
2022/05/05 07:01:54;;;;;;;17.08;10.38;;;19.20;57.60;;;;;;5092755;28;20028;-71
2022/05/05 07:07:13;;;;;;;14.27;10.55;;;19.40;57.10;;;;;;5090306;28;20039;-71
2022/05/05 07:12:24;;;;;;;14.30;10.32;;;19.70;56.70;;;;;;5085919;28;20085;-71
2022/05/05 07:14:50;;;;;;;17.58;10.70;;;19.90;56.40;;;;;;5080207;28;20027;-71
2022/05/05 07:17:15;;;;;;;14.68;10.27;;;20.00;56.20;;;;;;5078979;28;20021;-71
2022/05/05 07:19:41;;;;;;;12.38;9.70;;;20.10;56.00;;;;;;5072622;28;20028;-71
2022/05/05 07:22:08;;;;;;;13.57;10.40;;;20.10;55.50;;;;;;5078918;28;20031;-71
2022/05/05 07:24:34;;;;;;;15.15;10.57;;;20.20;55.00;;;;;;5090205;28;20031;-71
2022/05/05 07:27:01;;;;;;;14.57;10.57;;;20.20;54.60;;;;;;5085910;28;20051;-71
2022/05/05 07:29:27;;;;;;;15.38;9.52;;;20.10;54.60;;;;;;5082586;28;20115;-70
2022/05/05 07:31:53;;;;;;;13.50;10.50;;;20.10;54.90;;;;;;5092544;28;20133;-71
2022/05/05 07:34:19;;;;;;;13.60;9.70;;;20.00;54.90;;;;;;5082637;28;20028;-71
2022/05/05 07:36:46;;;;;;;11.25;9.13;;;20.00;55.30;;;;;;5090480;28;20020;-71
2022/05/05 07:39:12;;;;;;;15.77;10.20;;;20.00;55.40;;;;;;5081109;28;20031;-71
2022/05/05 07:41:38;;;;;;;14.35;10.32;;;20.00;55.20;;;;;;5074845;28;20024;-71
2022/05/05 07:44:05;;;;;;;13.73;8.63;;;20.00;55.00;;;;;;5072094;28;20027;-71
2022/05/05 07:46:32;;;;;;;9.55;8.10;;;20.00;55.00;;;;;;5086387;28;20030;-71
2022/05/05 07:49:02;;;;;;;9.73;7.53;;;20.10;55.00;;;;;;5092494;28;20056;-71
2022/05/05 07:51:31;;;;;;;11.68;7.07;;;20.10;54.50;;;;;;5092436;28;20020;-71
2022/05/05 07:56:43;;;;;;;6.82;5.97;;;20.20;53.80;;;;;;5072081;28;20495;-71
2022/05/05 07:59:09;;;;;;;9.50;6.53;;;20.20;53.50;;;;;;5079457;28;20103;-71
2022/05/05 08:01:35;;;;;;;9.55;6.72;;;20.20;53.60;;;;;;5085281;28;20044;-71
2022/05/05 08:04:00;;;;;;;9.30;6.13;;;20.20;53.20;;;;;;5089746;28;20028;-71
2022/05/05 08:06:26;;;;;;;6.40;5.55;;;20.20;53.40;;;;;;5075997;28;20040;-71
2022/05/05 08:08:52;;;;;;;6.30;4.93;;;20.20;53.50;;;;;;5092207;28;20055;-71
2022/05/05 08:11:18;;;;;;;9.65;4.03;;;20.30;53.30;;;;;;5083370;28;20452;-72
2022/05/05 08:13:44;;;;;;;3.63;2.83;;;20.30;52.70;;;;;;5072052;28;20020;-72
2022/05/05 08:16:10;;;;;;;3.30;2.53;;;20.30;52.20;;;;;;5071940;28;20056;-72
2022/05/05 08:18:38;;;;;;;2.50;2.05;;;20.30;51.60;;;;;;5072101;28;20051;-72
2022/05/05 08:21:10;;;;;;;6.43;2.40;;;20.30;51.10;;;;;;5072015;28;20470;-72
2022/05/05 08:23:37;;;;;;;3.88;2.83;;;20.40;51.20;;;;;;5072020;28;20032;-71
2022/05/05 08:28:48;;;;;;;6.65;3.35;;;20.40;51.70;;;;;;5080849;28;20043;-71
2022/05/05 08:31:14;;;;;;;6.30;3.67;;;20.50;52.00;;;;;;5072385;28;20032;-72
2022/05/05 08:33:40;;;;;;;4.47;3.72;;;20.60;52.80;;;;;;5086067;28;20493;-72
2022/05/05 08:36:07;;;;;;;5.32;3.85;;;20.70;52.30;;;;;;5087344;28;20091;-71
2022/05/05 08:38:33;;;;;;;4.30;3.72;;;20.70;52.10;;;;;;5081752;28;20066;-72
2022/05/05 08:41:01;;;;;;;6.10;4.05;;;20.70;52.20;;;;;;5088214;28;20027;-71
2022/05/05 08:43:27;;;;;;;5.85;4.28;;;20.80;52.10;;;;;;5095538;28;20100;-72
2022/05/05 08:45:55;;;;;;;3.75;3.30;;;20.80;52.10;;;;;;5094166;28;20028;-72
2022/05/05 08:48:21;;;;;;;5.22;3.90;;;20.80;52.20;;;;;;5093181;28;20060;-72
2022/05/05 08:50:55;;;;;;;12.57;4.10;;;20.90;52.20;;;;;;5093548;28;20469;-71
2022/05/05 08:53:29;;;;;;;4.65;3.72;;;20.90;52.20;;;;;;5085303;28;20485;-71
2022/05/05 08:55:55;;;;;;;7.15;4.15;;;21.00;51.80;;;;;;5078418;28;20031;-71
2022/05/05 08:58:22;;;;;;;6.72;3.83;;;21.00;51.70;;;;;;5092319;28;20389;-71
2022/05/05 09:00:52;;;;;;;3.95;3.38;;;21.10;51.50;;;;;;5089130;28;20044;-72
2022/05/05 09:03:19;;;;;;;4.03;2.85;;;21.10;51.20;;;;;;5089918;28;20024;-71
2022/05/05 09:05:44;;;;;;;5.70;3.08;;;21.20;51.20;;;;;;5090235;28;20070;-71
2022/05/05 09:08:34;;;;;;;4.07;2.85;;;21.30;51.10;;;;;;5073581;28;20029;-71
2022/05/05 09:11:05;;;;;;;6.53;3.00;;;21.30;51.10;;;;;;5074811;28;20039;-72
2022/05/05 09:13:34;;;;;;;3.72;2.83;;;21.40;50.70;;;;;;5084883;28;20100;-71
2022/05/05 09:16:03;;;;;;;6.20;2.75;;;21.50;51.00;;;;;;5090956;28;20035;-71
2022/05/05 09:18:31;;;;;;;4.70;2.88;;;21.50;50.40;;;;;;5092514;28;20024;-72
2022/05/05 09:20:59;;;;;;;5.75;2.75;;;21.60;50.00;;;;;;5090755;28;20024;-71
2022/05/05 09:23:32;;;;;;;4.38;3.30;;;21.60;49.60;;;;;;5089438;28;20073;-71
2022/05/05 09:25:59;;;;;;;10.40;2.67;;;21.60;49.50;;;;;;5089450;28;20042;-72
2022/05/05 09:28:35;;;;;;;4.63;2.65;;;21.70;49.70;;;;;;5092558;28;20020;-71
2022/05/05 09:31:05;;;;;;;3.88;2.15;;;21.70;49.30;;;;;;5089341;28;20020;-71
2022/05/05 09:33:34;;;;;;;3.67;2.22;;;21.80;49.30;;;;;;5094444;28;20052;-72
2022/05/05 09:36:11;;;;;;;4.80;2.00;;;21.80;48.90;;;;;;5094315;28;20095;-72
2022/05/05 09:38:57;;;;;;;2.42;1.63;;;21.80;48.50;;;;;;5085309;28;20104;-72
2022/05/05 09:41:44;;;;;;;6.45;2.30;;;21.80;48.70;;;;;;5087714;28;20039;-71
2022/05/05 09:44:14;;;;;;;3.22;1.60;;;21.90;48.70;;;;;;5085553;28;20024;-72
2022/05/05 09:46:40;;;;;;;2.38;1.60;;;21.90;47.90;;;;;;5087149;28;20047;-71
2022/05/05 09:49:13;;;;;;;1.63;1.52;;;21.90;47.70;;;;;;5082928;28;20027;-71
2022/05/05 09:51:42;;;;;;;2.15;1.80;;;22.00;47.70;;;;;;5083899;28;20088;-72
2022/05/05 10:00:19;;;;;;;17.08;4.18;;;22.10;47.50;;;;;;5041072;28;20049;-72
2022/05/05 10:05:31;;;;;;;3.08;1.40;;;22.20;47.30;;;;;;5049640;28;20079;-71
2022/05/05 10:07:57;;;;;;;3.60;1.52;;;22.20;47.10;;;;;;5050591;28;20029;-72
2022/05/05 10:10:24;;;;;;;2.17;1.40;;;22.30;47.20;;;;;;5037960;28;20072;-72
2022/05/05 10:12:51;;;;;;;1.60;1.40;;;22.30;46.60;;;;;;5046064;28;20055;-72
2022/05/05 10:15:18;;;;;;;3.25;1.80;;;22.30;46.70;;;;;;5048485;28;20021;-71
2022/05/05 10:17:45;;;;;;;2.15;1.65;;;22.40;45.60;;;;;;5045099;28;20087;-71
2022/05/05 10:20:12;;;;;;;2.72;1.30;;;22.40;46.10;;;;;;5028822;28;20040;-71
2022/05/05 10:22:49;;;;;;;2.15;1.63;;;22.40;45.80;;;;;;5041787;28;20081;-71
2022/05/05 10:25:21;;;;;;;1.75;1.23;;;22.40;45.60;;;;;;5041583;28;20052;-71
2022/05/05 10:27:49;;;;;;;3.35;1.10;;;22.40;45.50;;;;;;5030513;28;20475;-73
2022/05/05 10:30:31;;;;;;;2.53;1.35;;;22.50;45.50;;;;;;5053629;28;20548;-72
2022/05/05 10:32:57;;;;;;;1.60;1.48;;;22.50;45.40;;;;;;5063900;28;20039;-72
2022/05/05 10:35:23;;;;;;;1.50;1.40;;;22.60;45.40;;;;;;5058626;28;20017;-73
2022/05/05 10:37:51;;;;;;;3.72;1.95;;;22.60;45.20;;;;;;5065128;28;20013;-71
2022/05/05 10:40:17;;;;;;;2.72;1.85;;;22.60;45.40;;;;;;5067247;28;20029;-70
2022/05/05 10:42:52;;;;;;;2.35;1.60;;;22.70;45.50;;;;;;5062226;28;20033;-70
2022/05/05 10:45:27;;;;;;;2.97;1.90;;;22.70;45.10;;;;;;5062460;28;20032;-71
2022/05/05 10:47:54;;;;;;;4.32;1.95;;;22.80;43.90;;;;;;5061298;28;20028;-73
2022/05/05 10:50:56;;;;;;;6.13;2.30;;;22.80;44.10;;;;;;5054915;28;20024;-73
2022/05/05 10:53:36;;;;;;;4.35;2.03;;;22.90;44.10;;;;;;5056440;28;20470;-71
2022/05/05 10:56:04;;;;;;;2.17;1.40;;;22.90;43.50;;;;;;5064657;28;20019;-70
2022/05/05 10:59:03;;;;;;;1.40;1.30;;;23.00;43.60;;;;;;5067749;28;20032;-73
2022/05/05 11:01:48;;;;;;;3.30;1.80;;;23.00;44.00;;;;;;5065120;28;20131;-73
2022/05/05 11:04:28;;;;;;;2.88;2.05;;;23.10;42.90;;;;;;5067889;28;20036;-73
2022/05/05 11:07:35;;;;;;;1.90;1.70;;;23.10;42.80;;;;;;5061578;28;20024;-74
2022/05/05 11:10:02;;;;;;;6.10;2.00;;;23.10;43.40;;;;;;5026624;28;20160;-73
2022/05/05 11:12:36;;;;;;;5.50;2.10;;;23.20;42.50;;;;;;5030248;28;20029;-71
2022/05/05 11:23:57;;;;;;;2.85;1.60;;;23.30;41.90;;;;;;5017612;28;20517;-72
2022/05/05 11:26:23;;;;;;;1.90;1.60;;;23.30;40.20;;;;;;5019619;28;20036;-71
2022/05/05 11:28:50;;;;;;;3.22;1.95;;;23.30;40.40;;;;;;5000074;28;20030;-71
2022/05/05 11:31:24;;;;;;;4.40;2.22;;;23.30;40.80;;;;;;5011709;28;20031;-71
2022/05/05 11:33:54;;;;;;;3.25;1.95;;;23.30;40.70;;;;;;5029652;28;20048;-71
2022/05/05 11:36:24;;;;;;;4.18;1.92;;;23.40;40.80;;;;;;5028874;28;20037;-71
2022/05/05 11:38:51;;;;;;;6.35;2.10;;;23.40;40.00;;;;;;5029708;28;20033;-71
2022/05/05 11:41:21;;;;;;;1.85;1.67;;;23.40;40.40;;;;;;5045895;28;20043;-71
2022/05/05 11:46:32;;;;;;;2.50;1.85;;;23.60;40.20;;;;;;5071239;28;20393;-72
2022/05/05 11:48:59;;;;;;;2.40;1.55;;;23.70;39.80;;;;;;5072192;28;20407;-71
2022/05/05 11:51:35;;;;;;;2.03;1.60;;;23.70;38.90;;;;;;5071034;28;20051;-71
2022/05/05 11:54:14;;;;;;;2.95;1.52;;;23.80;39.00;;;;;;5067567;28;20028;-71
2022/05/05 11:56:46;;;;;;;2.38;1.58;;;23.90;38.30;;;;;;5052265;28;20466;-72
2022/05/05 12:02:25;;;;;;;2.78;1.67;;;24.00;37.90;;;;;;5083577;28;20157;-71
2022/05/05 12:04:53;;;;;;;7.40;1.40;;;24.00;36.50;;;;;;5090028;28;20024;-72
2022/05/05 12:07:20;;;;;;;2.33;1.30;;;24.10;36.80;;;;;;5090956;28;20032;-72
2022/05/05 12:09:54;;;;;;;8.13;2.13;;;24.10;37.10;;;;;;5090056;28;20016;-71
2022/05/05 12:12:24;;;;;;;3.58;1.80;;;24.20;37.30;;;;;;5089272;28;20064;-72
2022/05/05 12:14:53;;;;;;;2.30;1.30;;;24.20;36.90;;;;;;5095582;28;20056;-72
2022/05/05 12:17:21;;;;;;;4.32;1.80;;;24.30;37.50;;;;;;5096236;28;20470;-72
2022/05/05 12:19:59;;;;;;;3.13;1.52;;;24.30;37.30;;;;;;5092207;28;20020;-72
2022/05/05 12:22:39;;;;;;;6.90;2.20;;;24.30;36.90;;;;;;5090626;28;20024;-72
2022/05/05 12:25:15;;;;;;;3.88;2.28;;;24.40;37.30;;;;;;5090639;28;20028;-72
2022/05/05 12:27:42;;;;;;;2.83;1.67;;;24.50;37.30;;;;;;5095517;28;20026;-72
2022/05/05 12:30:09;;;;;;;3.10;1.63;;;24.50;37.20;;;;;;5092721;28;20384;-72
2022/05/05 12:32:35;;;;;;;4.18;1.73;;;24.60;36.00;;;;;;5090528;28;20385;-72
2022/05/05 12:35:10;;;;;;;4.47;2.20;;;24.60;36.50;;;;;;5085048;28;20016;-72
2022/05/05 12:37:37;;;;;;;4.65;2.90;;;24.70;36.20;;;;;;5086726;28;20016;-72
2022/05/05 12:40:09;;;;;;;3.35;2.58;;;24.70;36.80;;;;;;5078620;28;20012;-72
2022/05/05 12:43:02;;;;;;;7.20;1.90;;;24.70;36.10;;;;;;5074185;28;20035;-71
2022/05/05 12:45:31;;;;;;;2.08;1.40;;;24.70;36.30;;;;;;5066104;28;20425;-72
2022/05/05 12:48:02;;;;;;;6.47;1.73;;;24.80;36.30;;;;;;5095654;28;20550;-72
2022/05/05 12:50:48;;;;;;;2.63;1.48;;;24.80;35.30;;;;;;5095659;28;20032;-72
2022/05/05 13:01:49;;;;;;;4.88;1.48;;;24.90;35.00;;;;;;5074949;28;20447;-72
2022/05/05 13:04:18;;;;;;;2.70;1.75;;;25.00;35.30;;;;;;5075809;28;20020;-72
2022/05/05 13:06:47;;;;;;;2.58;1.63;;;25.00;34.30;;;;;;5073569;28;20043;-72
2022/05/05 13:09:14;;;;;;;3.55;1.92;;;25.00;34.70;;;;;;5074392;28;20466;-72
2022/05/05 13:11:44;;;;;;;4.28;1.80;;;25.00;35.00;;;;;;5074233;28;20029;-72
2022/05/05 13:14:10;;;;;;;4.82;3.45;;;25.00;34.30;;;;;;5074909;28;20390;-72
2022/05/05 13:16:37;;;;;;;5.35;2.78;;;25.10;35.10;;;;;;5074906;28;20386;-72
2022/05/05 13:19:04;;;;;;;13.23;2.83;;;25.20;34.90;;;;;;5074896;28;20017;-71
2022/05/05 13:21:33;;;;;;;8.10;2.30;;;25.20;34.10;;;;;;5074951;28;20442;-72
2022/05/05 13:23:59;;;;;;;3.33;2.53;;;25.20;33.90;;;;;;5074717;28;20048;-72
2022/05/05 13:26:25;;;;;;;3.22;2.50;;;25.30;34.20;;;;;;5073969;28;20056;-72
2022/05/05 13:28:51;;;;;;;4.95;1.17;;;25.30;33.60;;;;;;5084849;28;20024;-72
2022/05/05 13:31:17;;;;;;;2.97;1.92;;;25.30;33.30;;;;;;5094448;28;20032;-72
2022/05/05 13:33:43;;;;;;;2.95;1.98;;;25.30;32.80;;;;;;5094531;28;20447;-71
2022/05/05 13:36:10;;;;;;;6.15;2.92;;;25.40;32.70;;;;;;5094747;28;20020;-71
2022/05/05 13:38:36;;;;;;;5.18;2.55;;;25.50;33.20;;;;;;5093167;28;20480;-72
2022/05/05 13:41:03;;;;;;;6.57;1.73;;;25.70;33.10;;;;;;5094665;28;20024;-72
2022/05/05 13:43:29;;;;;;;2.05;1.50;;;26.00;32.40;;;;;;5094312;28;20102;-72
2022/05/05 13:45:55;;;;;;;1.50;1.27;;;26.40;33.00;;;;;;5094414;28;20107;-72